Time;durP1;ratioP1;P1;durP2;ratioP2;P2;SDS_P1;SDS_P2;PMS_P1;PMS_P2;Temp;Humidity;BMP_temperature;BMP_pressure;BME280_temperature;BME280_humidity;BME280_pressure;Samples;Min_cycle;Max_cycle;Signal;HPM_P1;HPM_P2
2023/07/14 00:01:21;;;;;;;15.18;13.30;;;;;;;14.85;100.00;101739.09;4954290;29;20067;-80
2023/07/14 00:03:47;;;;;;;15.13;13.52;;;;;;;14.95;100.00;101760.13;4954593;29;20027;-80
2023/07/14 00:06:14;;;;;;;14.65;13.13;;;;;;;14.99;100.00;101753.78;4954424;29;20035;-81
2023/07/14 00:08:43;;;;;;;17.85;14.10;;;;;;;15.09;100.00;101754.00;4954369;29;20023;-80
2023/07/14 00:11:11;;;;;;;14.77;13.10;;;;;;;15.17;100.00;101757.75;4954245;29;20122;-80
2023/07/14 00:13:37;;;;;;;15.38;12.50;;;;;;;15.21;100.00;101754.00;4954477;29;20129;-80
2023/07/14 00:16:02;;;;;;;14.55;12.65;;;;;;;15.25;100.00;101756.41;4953971;29;20482;-81
2023/07/14 00:18:27;;;;;;;15.48;12.38;;;;;;;15.25;100.00;101749.44;4936856;29;20043;-80
2023/07/14 00:20:53;;;;;;;16.77;13.35;;;;;;;15.20;100.00;101741.09;4953851;29;20366;-80
2023/07/14 00:23:18;;;;;;;15.85;13.02;;;;;;;14.94;100.00;101714.22;4954377;29;20362;-80
2023/07/14 00:25:45;;;;;;;15.07;13.15;;;;;;;15.09;100.00;101754.81;4954123;29;20102;-80
2023/07/14 00:28:21;;;;;;;14.65;12.75;;;;;;;14.95;100.00;101725.50;4954094;29;20048;-80
2023/07/14 00:30:48;;;;;;;14.65;12.23;;;;;;;15.08;100.00;101754.94;4953663;29;20492;-80
2023/07/14 00:33:18;;;;;;;15.60;12.57;;;;;;;15.12;100.00;101752.00;4953952;29;20485;-80
2023/07/14 00:35:45;;;;;;;15.27;12.33;;;;;;;15.02;100.00;101730.16;4954192;29;20039;-80
2023/07/14 00:38:11;;;;;;;16.67;13.07;;;;;;;14.95;100.00;101715.91;4954016;29;20110;-81
2023/07/14 00:40:48;;;;;;;14.38;12.15;;;;;;;14.82;100.00;101699.44;4953952;29;20031;-80
2023/07/14 00:43:24;;;;;;;13.48;11.43;;;;;;;15.00;100.00;101721.63;4954139;29;20114;-80
2023/07/14 00:45:54;;;;;;;14.40;11.80;;;;;;;15.01;100.00;101730.25;4936902;29;20016;-80
2023/07/14 00:48:22;;;;;;;17.70;12.35;;;;;;;15.12;100.00;101736.41;4953895;29;20023;-80
2023/07/14 00:51:12;;;;;;;15.90;11.68;;;;;;;15.17;100.00;101731.72;4953806;29;20114;-80
2023/07/14 00:53:40;;;;;;;16.20;11.93;;;;;;;15.26;100.00;101726.84;4943218;29;20043;-80
2023/07/14 00:56:14;;;;;;;13.02;11.13;;;;;;;15.27;100.00;101725.91;4953856;29;20031;-80
2023/07/14 00:58:45;;;;;;;14.00;11.00;;;;;;;15.33;100.00;101726.28;4953965;29;20345;-80
2023/07/14 01:01:22;;;;;;;12.75;10.68;;;;;;;15.33;100.00;101730.66;4956695;28;20066;-80
2023/07/14 01:03:58;;;;;;;16.52;11.25;;;;;;;15.31;100.00;101732.53;4957289;29;20023;-80
2023/07/14 01:06:38;;;;;;;12.20;10.43;;;;;;;15.23;100.00;101719.22;4957494;29;20492;-80
2023/07/14 01:09:10;;;;;;;12.40;9.90;;;;;;;15.24;100.00;101724.34;4957320;29;20049;-80
2023/07/14 01:11:43;;;;;;;13.65;10.32;;;;;;;15.15;100.00;101702.38;4957153;29;20027;-80
2023/07/14 01:14:19;;;;;;;12.98;9.93;;;;;;;15.10;100.00;101694.06;4957018;29;20662;-80
2023/07/14 01:16:46;;;;;;;13.30;9.65;;;;;;;15.14;100.00;101699.88;4956874;29;20027;-80
2023/07/14 01:19:36;;;;;;;12.82;9.15;;;;;;;15.34;100.00;101733.19;4957218;29;20031;-80
2023/07/14 01:22:13;;;;;;;12.05;8.80;;;;;;;15.29;100.00;101718.81;4956928;29;20035;-80
2023/07/14 01:24:46;;;;;;;13.93;9.15;;;;;;;15.38;100.00;101728.59;4939224;29;20035;-80
2023/07/14 01:27:11;;;;;;;11.48;8.45;;;;;;;15.46;100.00;101721.09;4956932;29;20050;-79
2023/07/14 01:29:39;;;;;;;14.07;8.68;;;;;;;15.43;100.00;101716.91;4956730;29;20019;-80
2023/07/14 01:32:15;;;;;;;11.18;9.07;;;;;;;15.44;100.00;101709.97;4956688;29;20023;-80
2023/07/14 01:34:41;;;;;;;12.50;9.20;;;;;;;15.36;100.00;101704.44;4956748;29;20028;-80
2023/07/14 01:37:06;;;;;;;11.68;9.27;;;;;;;15.40;100.00;101711.94;4956657;29;20078;-80
2023/07/14 01:39:32;;;;;;;11.65;8.80;;;;;;;15.01;100.00;101666.06;4956609;29;20038;-80
2023/07/14 01:41:58;;;;;;;11.73;8.93;;;;;;;14.98;100.00;101674.09;4956827;29;20035;-80
2023/07/14 01:44:25;;;;;;;14.13;8.77;;;;;;;15.17;100.00;101710.91;4956746;29;20092;-80
2023/07/14 01:46:51;;;;;;;15.20;8.90;;;;;;;14.81;100.00;101662.22;4956616;29;20029;-79
2023/07/14 01:49:50;;;;;;;12.18;8.40;;;;;;;15.11;100.00;101706.13;4956275;29;20536;-79
2023/07/14 01:52:25;;;;;;;12.80;9.48;;;;;;;15.10;100.00;101707.06;4956579;29;20023;-79
2023/07/14 01:54:56;;;;;;;12.57;9.60;;;;;;;14.95;100.00;101671.69;4956617;29;20023;-80
2023/07/14 01:57:24;;;;;;;;;;;;;;;15.22;100.00;101707.97;4956952;29;20102;-79
2023/07/14 01:59:54;;;;;;;12.40;9.82;;;;;;;15.10;100.00;101701.84;4956226;29;19993;-79
2023/07/14 02:02:30;;;;;;;11.05;8.40;;;;;;;15.08;100.00;101703.72;4956143;29;20027;-80
2023/07/14 02:04:56;;;;;;;11.30;8.93;;;;;;;15.07;100.00;101703.84;4956271;29;20026;-80
2023/07/14 02:07:24;;;;;;;12.40;8.77;;;;;;;14.84;100.00;101666.38;4956376;29;20035;-80
2023/07/14 02:09:49;;;;;;;16.35;9.80;;;;;;;14.11;100.00;101541.31;4939291;29;20028;-80
2023/07/14 02:12:25;;;;;;;12.48;9.15;;;;;;;15.09;100.00;101695.00;4938206;29;20050;-80
2023/07/14 02:14:57;;;;;;;14.77;9.38;;;;;;;14.91;100.00;101671.06;4956190;29;20385;-81
2023/07/14 02:17:26;;;;;;;10.88;8.63;;;;;;;15.09;100.00;101704.56;4955932;29;20393;-80
2023/07/14 02:19:52;;;;;;;15.55;9.95;;;;;;;15.07;100.00;101689.06;4938586;29;20031;-80
2023/07/14 02:22:19;;;;;;;13.20;9.30;;;;;;;15.08;100.00;101701.13;4955817;29;20034;-81
2023/07/14 02:24:49;;;;;;;12.27;9.32;;;;;;;15.01;100.00;101688.63;4955816;29;20031;-80
2023/07/14 02:27:14;;;;;;;12.65;9.02;;;;;;;14.97;100.00;101687.19;4955337;29;20102;-80
2023/07/14 02:29:42;;;;;;;12.20;9.23;;;;;;;14.84;100.00;101688.00;4937817;29;20187;-80
2023/07/14 02:32:12;;;;;;;15.02;10.00;;;;;;;14.83;100.00;101695.91;4955462;29;20118;-80
2023/07/14 02:34:44;;;;;;;13.45;9.82;;;;;;;14.81;100.00;101687.38;4954938;29;20027;-80
2023/07/14 02:37:39;;;;;;;16.52;8.93;;;;;;;14.83;100.00;101686.34;4955570;29;20031;-79
2023/07/14 02:40:06;;;;;;;11.18;9.15;;;;;;;14.75;100.00;101682.59;4955465;29;20027;-80
2023/07/14 02:42:37;;;;;;;12.32;9.50;;;;;;;14.54;100.00;101675.28;4955360;29;20048;-79
2023/07/14 02:45:03;;;;;;;12.03;9.33;;;;;;;14.43;100.00;101662.13;4955390;29;20024;-80
2023/07/14 02:47:29;;;;;;;13.93;9.55;;;;;;;14.50;100.00;101686.81;4955239;29;20286;-80
2023/07/14 02:49:55;;;;;;;12.93;9.38;;;;;;;14.43;100.00;101690.72;4955320;29;20045;-80
2023/07/14 02:52:20;;;;;;;13.25;10.05;;;;;;;14.34;100.00;101681.75;4955424;29;20027;-80
2023/07/14 02:54:45;;;;;;;11.77;10.57;;;;;;;14.05;100.00;101657.66;4955377;29;20086;-80
2023/07/14 02:57:10;;;;;;;12.43;10.20;;;;;;;14.21;100.00;101693.06;4955090;29;20034;-80
2023/07/14 02:59:36;;;;;;;13.38;10.25;;;;;;;13.86;100.00;101643.34;4937854;29;20054;-80
2023/07/14 03:02:02;;;;;;;15.70;10.75;;;;;;;14.09;100.00;101693.84;4955239;29;20033;-80
2023/07/14 03:04:34;;;;;;;13.75;10.35;;;;;;;13.70;100.00;101633.97;4954918;29;20062;-80
2023/07/14 03:07:00;;;;;;;12.57;10.52;;;;;;;13.84;100.00;101651.25;4955140;29;20024;-80
2023/07/14 03:09:25;;;;;;;13.18;10.60;;;;;;;14.04;100.00;101683.72;4954650;29;20523;-79
2023/07/14 03:11:53;;;;;;;12.65;9.73;;;;;;;14.01;100.00;101679.56;4954920;29;20165;-80
2023/07/14 03:14:19;;;;;;;14.38;11.02;;;;;;;13.69;100.00;101618.47;4955049;29;20058;-80
2023/07/14 03:16:44;;;;;;;13.85;10.80;;;;;;;14.06;100.00;101674.09;4954696;29;20074;-80
2023/07/14 03:19:09;;;;;;;13.95;10.50;;;;;;;14.04;100.00;101671.56;4937070;29;20067;-80
2023/07/14 03:21:35;;;;;;;14.18;11.30;;;;;;;14.07;100.00;101673.16;4943367;29;20028;-80
2023/07/14 03:24:03;;;;;;;14.73;12.45;;;;;;;14.05;100.00;101662.03;4935490;29;20059;-80
2023/07/14 03:26:31;;;;;;;13.57;11.63;;;;;;;14.15;100.00;101672.66;4918484;29;20179;-80
2023/07/14 03:28:57;;;;;;;14.93;12.23;;;;;;;14.17;100.00;101676.00;4935488;29;20615;-81
2023/07/14 03:31:22;;;;;;;15.52;12.27;;;;;;;14.19;100.00;101666.34;4935702;29;20071;-80
2023/07/14 03:33:47;;;;;;;14.30;11.68;;;;;;;14.27;100.00;101677.06;4935700;29;20492;-80
2023/07/14 03:36:13;;;;;;;15.63;11.70;;;;;;;14.28;100.00;101668.34;4935495;29;20027;-80
2023/07/14 03:38:44;;;;;;;14.80;11.23;;;;;;;14.19;100.00;101642.97;4935330;29;20474;-80
2023/07/14 03:41:12;;;;;;;15.80;11.67;;;;;;;14.32;100.00;101662.00;4918306;29;20035;-80
2023/07/14 03:43:37;;;;;;;16.92;12.30;;;;;;;14.03;100.00;101601.56;4935719;29;20032;-80
2023/07/14 03:46:03;;;;;;;14.65;11.50;;;;;;;14.38;100.00;101653.81;4935260;29;20164;-80
2023/07/14 03:48:28;;;;;;;13.85;11.15;;;;;;;14.35;100.00;101657.47;4935483;29;20055;-80
2023/07/14 03:51:00;;;;;;;12.38;10.32;;;;;;;14.12;100.00;101620.91;4934735;29;20031;-80
2023/07/14 03:53:25;;;;;;;15.10;10.07;;;;;;;13.87;100.00;101572.34;4935361;29;20382;-80
2023/07/14 03:55:50;;;;;;;13.82;10.57;;;;;;;14.40;100.00;101654.53;4935328;29;20047;-79
2023/07/14 03:58:15;;;;;;;13.18;10.00;;;;;;;14.38;100.00;101651.22;4917814;29;20035;-80
2023/07/14 04:00:41;;;;;;;15.07;10.77;;;;;;;14.27;100.00;101625.13;4935333;29;20047;-80
2023/07/14 04:03:07;;;;;;;14.35;11.93;;;;;;;14.42;100.00;101649.25;4935458;29;20046;-80
2023/07/14 04:05:33;;;;;;;15.10;11.15;;;;;;;14.34;100.00;101628.94;4935058;29;20027;-80
2023/07/14 04:07:58;;;;;;;12.80;10.43;;;;;;;14.46;100.00;101653.34;4935083;29;20032;-80
2023/07/14 04:10:23;;;;;;;14.80;11.07;;;;;;;14.31;100.00;101631.75;4935156;29;20119;-80
2023/07/14 04:12:49;;;;;;;14.60;11.02;;;;;;;14.16;100.00;101609.38;4918031;29;20035;-80
2023/07/14 04:15:15;;;;;;;13.00;10.82;;;;;;;14.31;100.00;101631.75;4935466;29;20032;-80
2023/07/14 04:17:41;;;;;;;13.80;10.73;;;;;;;14.36;100.00;101619.31;4935267;29;20024;-80
2023/07/14 04:20:07;;;;;;;12.43;10.63;;;;;;;14.56;100.00;101649.22;4934841;29;20036;-80
2023/07/14 04:22:33;;;;;;;13.43;10.48;;;;;;;14.63;100.00;101653.88;4935163;29;20079;-80
2023/07/14 04:24:58;;;;;;;12.02;9.73;;;;;;;14.62;100.00;101652.22;4935129;29;20032;-79
2023/07/14 04:27:25;;;;;;;13.90;10.57;;;;;;;14.61;100.00;101653.16;4934933;29;20032;-80
2023/07/14 04:29:50;;;;;;;14.20;10.45;;;;;;;14.49;100.00;101603.75;4935205;29;20060;-80
2023/07/14 04:32:16;;;;;;;12.90;9.73;;;;;;;14.77;100.00;101644.34;4935103;29;20355;-80
2023/07/14 04:34:41;;;;;;;12.25;9.07;;;;;;;14.68;100.00;101626.75;4935567;29;20094;-80
2023/07/14 04:37:07;;;;;;;13.20;10.10;;;;;;;14.83;100.00;101643.91;4938604;29;20055;-80
2023/07/14 04:39:32;;;;;;;14.50;9.82;;;;;;;14.69;100.00;101605.03;4921348;29;20448;-81
2023/07/14 04:41:58;;;;;;;12.60;9.52;;;;;;;14.96;100.00;101641.31;4938448;29;20032;-81
2023/07/14 04:44:24;;;;;;;13.15;9.75;;;;;;;15.03;100.00;101645.13;4938457;29;20028;-80
2023/07/14 04:46:49;;;;;;;15.77;9.65;;;;;;;15.17;100.00;101647.66;4938507;29;20079;-80
2023/07/14 04:49:20;;;;;;;12.98;10.27;;;;;;;15.26;100.00;101640.97;4938450;29;20035;-79
2023/07/14 04:51:45;;;;;;;12.10;9.30;;;;;;;15.45;100.00;101628.34;4938221;29;20039;-80
2023/07/14 04:54:11;;;;;;;11.27;8.75;;;;;;;15.51;100.00;101620.06;4938149;29;20036;-79
2023/07/14 04:56:37;;;;;;;13.82;7.75;;;;;;;15.85;100.00;101615.09;4938271;29;20590;-79
2023/07/14 04:59:05;;;;;;;9.80;7.07;;;;;;;16.16;100.00;101643.16;4938108;29;20083;-79
2023/07/14 05:01:31;;;;;;;11.15;8.23;;;;;;;16.24;100.00;101645.22;4938015;29;20028;-79
2023/07/14 05:03:57;;;;;;;7.53;5.68;;;;;;;16.41;100.00;101650.00;4938199;29;20103;-79
2023/07/14 05:06:22;;;;;;;9.27;6.97;;;;;;;16.40;100.00;101650.94;4938096;29;20031;-79
2023/07/14 05:08:47;;;;;;;8.90;6.70;;;;;;;16.32;100.00;101633.28;4938028;29;20023;-80
2023/07/14 05:11:13;;;;;;;9.90;6.82;;;;;;;16.41;100.00;101646.56;4920607;29;20449;-79
2023/07/14 05:13:38;;;;;;;8.82;6.32;;;;;;;16.40;100.00;101639.69;4937870;29;20457;-80
2023/07/14 05:16:03;;;;;;;9.05;6.07;;;;;;;16.31;100.00;101634.19;4938100;29;20028;-79
2023/07/14 05:18:29;;;;;;;11.02;6.65;;;;;;;16.48;100.00;101637.34;4937943;29;20056;-79
2023/07/14 05:21:04;;;;;;;8.75;5.95;;;;;;;16.69;100.00;101647.97;4937718;29;20028;-79
2023/07/14 05:23:31;;;;;;;10.32;6.40;;;;;;;16.34;100.00;101579.25;4937815;29;20417;-79
2023/07/14 05:25:57;;;;;;;9.43;5.85;;;;;;;16.79;100.00;101635.88;4937834;29;20039;-79
2023/07/14 05:28:22;;;;;;;10.80;5.25;;;;;;;16.92;100.00;101647.06;4916531;29;20040;-79
2023/07/14 05:30:50;;;;;;;8.07;5.13;;;;;;;17.02;100.00;101644.56;4918450;29;20040;-79
2023/07/14 05:33:16;;;;;;;10.00;5.40;;;;;;;17.37;97.39;101644.41;4918745;29;20046;-80
2023/07/14 05:35:42;;;;;;;9.75;4.90;;;;;;;17.60;95.70;101643.44;4928081;29;20040;-79
2023/07/14 05:38:07;;;;;;;6.72;4.45;;;;;;;17.53;95.14;101646.66;4938175;29;20024;-78
2023/07/14 05:40:33;;;;;;;9.07;4.40;;;;;;;17.34;93.83;101648.09;4925548;29;20031;-79
2023/07/14 05:42:59;;;;;;;8.32;4.22;;;;;;;17.03;95.67;101601.88;4920660;29;20028;-78
2023/07/14 05:45:24;;;;;;;7.78;4.30;;;;;;;17.48;95.20;101640.00;4918358;29;20474;-79
2023/07/14 05:47:50;;;;;;;9.27;4.60;;;;;;;17.39;93.31;101629.47;4917658;29;20024;-78
2023/07/14 05:50:16;;;;;;;7.78;4.47;;;;;;;17.80;93.04;101618.38;4918165;29;20102;-80
2023/07/14 05:52:42;;;;;;;11.27;4.90;;;;;;;19.09;86.47;101622.38;4918119;29;20044;-77
2023/07/14 05:55:08;;;;;;;7.28;3.92;;;;;;;19.97;81.37;101634.69;4918466;29;20024;-79
2023/07/14 05:57:36;;;;;;;7.85;4.28;;;;;;;20.80;76.68;101633.19;4918103;29;20386;-78
2023/07/14 06:00:09;;;;;;;7.25;4.18;;;;;;;20.92;72.94;101592.66;4918461;29;20076;-78
2023/07/14 06:02:34;;;;;;;9.70;4.00;;;;;;;21.18;70.49;101608.56;4917941;29;20031;-79
2023/07/14 06:05:03;;;;;;;6.88;3.28;;;;;;;21.91;68.26;101623.44;4917893;29;20024;-80
2023/07/14 06:07:31;;;;;;;6.13;3.83;;;;;;;22.13;65.49;101602.00;4916551;29;20537;-80
2023/07/14 06:09:56;;;;;;;7.57;3.70;;;;;;;22.19;65.42;101632.09;4916682;29;20035;-80
2023/07/14 06:12:22;;;;;;;7.95;3.83;;;;;;;21.33;66.73;101639.63;4916255;29;20048;-78
2023/07/14 06:14:47;;;;;;;7.03;3.45;;;;;;;20.35;70.13;101591.00;4935307;29;20044;-80
2023/07/14 06:17:13;;;;;;;6.30;3.55;;;;;;;20.12;72.67;101637.72;4936707;29;20434;-80
2023/07/14 06:19:40;;;;;;;9.15;4.35;;;;;;;19.26;73.79;101639.22;4935470;29;20072;-81
2023/07/14 06:22:06;;;;;;;9.00;3.60;;;;;;;18.91;77.08;101645.72;4936658;29;20020;-81
2023/07/14 06:24:34;;;;;;;6.78;3.60;;;;;;;18.70;79.87;101636.25;4936223;29;20554;-80
2023/07/14 06:27:00;;;;;;;9.10;3.80;;;;;;;18.41;80.85;101626.41;4936379;29;20023;-81
2023/07/14 06:29:25;;;;;;;10.07;4.13;;;;;;;18.19;80.35;101634.34;4948210;29;20043;-79
2023/07/14 06:34:32;;;;;;;7.78;3.78;;;;;;;18.61;81.95;101643.03;4970728;23;20051;-81
2023/07/14 06:37:16;;;;;;;7.55;3.60;;;;;;;18.08;79.69;101469.72;4955196;29;20032;-80
2023/07/14 06:39:50;;;;;;;8.57;3.92;;;;;;;18.58;78.65;101523.81;4955167;29;20548;-81
2023/07/14 06:42:16;;;;;;;6.65;3.47;;;;;;;18.72;77.83;101527.88;4955358;29;20114;-80
2023/07/14 06:44:42;;;;;;;10.75;3.90;;;;;;;19.95;74.29;101633.16;4937939;29;20512;-82
2023/07/14 06:47:07;;;;;;;7.47;3.60;;;;;;;20.30;72.38;101622.94;4955428;29;20031;-80
2023/07/14 06:49:33;;;;;;;8.00;3.85;;;;;;;20.31;72.50;101623.75;4955336;29;20031;-81
2023/07/14 06:51:58;;;;;;;6.50;3.83;;;;;;;20.02;71.97;101581.81;4955158;29;20028;-81
2023/07/14 06:54:23;;;;;;;7.53;3.45;;;;;;;20.81;70.76;101605.97;4954792;29;20053;-79
2023/07/14 06:56:49;;;;;;;7.95;3.63;;;;;;;22.01;66.74;101611.88;4955075;28;20031;-80
2023/07/14 06:59:14;;;;;;;8.02;3.22;;;;;;;22.80;62.45;101625.91;4955090;29;20035;-79
2023/07/14 07:01:42;;;;;;;6.65;2.92;;;;;;;22.43;62.95;101620.94;4955212;29;20468;-78
2023/07/14 07:04:07;;;;;;;7.38;3.58;;;;;;;21.73;63.95;101587.50;4955023;29;20082;-76
2023/07/14 07:06:33;;;;;;;8.50;3.88;;;;;;;21.72;65.09;101617.38;4955145;29;20030;-76
2023/07/14 07:08:59;;;;;;;9.68;3.75;;;;;;;21.40;65.13;101573.19;4936637;29;20114;-77
2023/07/14 07:11:24;;;;;;;7.95;3.22;;;;;;;21.54;65.29;101577.13;4937837;29;20031;-81
2023/07/14 07:13:49;;;;;;;5.95;3.22;;;;;;;21.73;64.66;101607.69;4954923;29;20042;-80
2023/07/14 07:16:16;;;;;;;6.63;3.67;;;;;;;21.12;64.93;101568.91;4954897;29;20023;-80
2023/07/14 07:18:41;;;;;;;7.32;3.47;;;;;;;21.09;67.01;101608.63;4955065;29;20053;-78
2023/07/14 07:21:08;;;;;;;5.75;2.97;;;;;;;20.83;68.05;101601.41;5197107;23;20519;-83
2023/07/14 07:23:35;;;;;;;8.45;3.40;;;;;;;20.56;68.28;101601.38;4954443;29;20026;-81
2023/07/14 07:26:01;;;;;;;7.30;3.13;;;;;;;20.36;68.01;101581.38;4937721;29;20035;-79
2023/07/14 07:28:27;;;;;;;8.63;3.38;;;;;;;20.28;67.03;101603.06;4954499;29;20039;-78
2023/07/14 07:30:54;;;;;;;8.82;3.20;;;;;;;20.08;69.95;101593.56;4948723;29;20034;-77
2023/07/14 07:33:20;;;;;;;6.97;3.10;;;;;;;20.63;68.96;101602.44;4918136;29;20054;-80
2023/07/14 07:35:46;;;;;;;7.38;3.15;;;;;;;22.48;64.67;101602.88;4935540;29;20024;-78
2023/07/14 07:38:13;;;;;;;8.02;2.88;;;;;;;23.64;59.33;101601.38;4918209;29;20028;-81
2023/07/14 07:40:44;;;;;;;5.80;2.90;;;;;;;23.22;57.57;101596.16;4918626;29;20504;-79
2023/07/14 07:43:09;;;;;;;7.35;3.53;;;;;;;22.61;59.36;101575.16;4935566;29;20188;-79
2023/07/14 07:45:35;;;;;;;6.85;3.45;;;;;;;22.63;59.40;101595.22;4934943;29;20142;-80
2023/07/14 07:48:00;;;;;;;5.43;2.90;;;;;;;22.37;61.00;101555.75;4935395;29;20031;-79
2023/07/14 07:50:26;;;;;;;6.63;3.25;;;;;;;22.82;59.67;101584.47;4935137;29;20472;-80
2023/07/14 07:52:53;;;;;;;6.57;3.10;;;;;;;22.65;60.01;101562.50;4918298;29;20054;-79
2023/07/14 07:55:21;;;;;;;5.78;2.90;;;;;;;22.61;59.11;101590.94;4935316;29;20028;-82
2023/07/14 07:57:47;;;;;;;5.60;2.85;;;;;;;22.38;60.20;101588.97;4935685;29;20382;-80
2023/07/14 08:00:15;;;;;;;6.00;2.70;;;;;;;22.24;60.82;101583.31;4935044;29;20028;-80
2023/07/14 08:02:58;;;;;;;5.78;2.95;;;;;;;22.01;62.13;101580.31;4935388;29;20059;-80
2023/07/14 08:05:25;;;;;;;7.22;3.13;;;;;;;21.43;61.63;101549.28;4917732;29;20117;-81
2023/07/14 08:08:34;;;;;;;5.97;2.83;;;;;;;21.57;63.23;101576.00;4917913;29;20039;-81
2023/07/14 08:13:30;;;;;;;4.88;2.40;;;;;;;21.35;61.12;101551.00;5847644;23;20122;-80
2023/07/14 08:21:14;;;;;;;5.05;2.35;;;;;;;21.36;60.24;101463.31;4922250;26;20532;-81
2023/07/14 08:23:55;;;;;;;4.13;2.22;;;;;;;21.25;60.99;101418.84;4938856;29;20020;-83
2023/07/14 08:26:32;;;;;;;6.88;2.50;;;;;;;21.30;60.43;101414.81;4938730;29;20023;-82
2023/07/14 08:29:00;;;;;;;3.97;2.35;;;;;;;22.16;59.41;101582.44;4938330;29;20031;-83
2023/07/14 08:31:34;;;;;;;5.57;2.20;;;;;;;21.17;59.58;101411.72;4938695;29;20023;-83
2023/07/14 08:34:15;;;;;;;5.93;2.70;;;;;;;21.38;61.53;101445.59;5007294;23;20055;-88
2023/07/14 08:36:40;;;;;;;5.85;2.80;;;;;;;21.00;60.71;101416.00;4957825;29;20109;-87
2023/07/14 08:39:26;;;;;;;8.60;2.75;;;;;;;21.18;61.55;101444.88;4957693;29;20458;-85
2023/07/14 08:41:56;;;;;;;6.72;2.75;;;;;;;20.92;61.87;101427.25;4841631;29;20045;-87
2023/07/14 08:45:07;;;;;;;6.20;2.63;;;;;;;22.00;60.77;101572.56;4898759;29;20097;-81
2023/07/14 08:48:19;;;;;;;6.18;2.58;;;;;;;22.01;60.10;101574.22;4897992;29;20036;-85
2023/07/14 08:51:35;;;;;;;4.97;2.30;;;;;;;22.15;59.87;101575.53;4898060;29;20045;-82
2023/07/14 08:54:14;;;;;;;6.35;2.15;;;;;;;21.91;58.59;101499.84;4955342;23;20048;-85
2023/07/14 08:56:41;;;;;;;7.35;2.80;;;;;;;22.20;59.31;101508.28;4940038;29;20051;-82
2023/07/14 08:59:13;;;;;;;10.63;2.53;;;;;;;22.88;56.43;101568.03;4957435;29;20035;-80
2023/07/14 09:01:49;;;;;;;5.10;2.40;;;;;;;23.00;56.65;101558.84;4957210;29;20473;-81
2023/07/14 09:04:23;;;;;;;4.97;2.75;;;;;;;23.00;56.21;101553.59;4939360;29;20154;-81
2023/07/14 09:06:48;;;;;;;5.68;2.30;;;;;;;22.75;57.03;101505.25;4957011;29;20032;-81
2023/07/14 09:09:18;;;;;;;6.18;2.50;;;;;;;22.93;57.58;101533.34;4957467;29;20520;-80
2023/07/14 09:12:02;;;;;;;6.35;2.38;;;;;;;22.99;56.17;101551.94;4957369;29;20392;-77
2023/07/14 09:14:48;;;;;;;8.50;3.00;;;;;;;22.84;55.77;101522.78;4956969;29;20031;-80
2023/07/14 09:17:23;;;;;;;5.47;2.40;;;;;;;22.86;53.86;101555.03;4956958;29;20031;-79
2023/07/14 09:20:10;;;;;;;5.70;2.28;;;;;;;22.78;54.89;101552.34;4957088;29;20035;-81
2023/07/14 09:22:41;;;;;;;5.60;2.20;;;;;;;22.73;54.45;101544.09;4956976;29;20023;-78
2023/07/14 09:25:25;;;;;;;;;;;;;;;23.04;54.68;101541.75;4957238;29;20034;-76
2023/07/14 09:27:51;;;;;;;6.45;2.38;;;;;;;22.93;55.51;101518.38;4956832;29;20005;-78
2023/07/14 09:30:23;;;;;;;6.70;2.55;;;;;;;23.04;54.49;101496.16;4956674;29;20027;-77
2023/07/14 09:32:58;;;;;;;6.75;2.20;;;;;;;23.38;54.98;101539.03;4956567;29;20027;-78
2023/07/14 09:35:25;;;;;;;5.35;2.20;;;;;;;22.92;53.97;101457.94;4956774;29;20023;-79
2023/07/14 09:37:57;;;;;;;5.07;2.45;;;;;;;23.28;53.86;101530.44;4956541;29;20031;-79
2023/07/14 09:40:36;;;;;;;4.93;2.55;;;;;;;22.83;54.97;101460.53;4962550;23;20078;-80
2023/07/14 09:45:37;;;;;;;5.50;2.50;;;;;;;23.06;55.74;101518.72;4917412;29;20049;-81
2023/07/14 09:48:19;;;;;;;5.55;2.58;;;;;;;23.13;54.74;101527.63;4918491;29;20024;-80
2023/07/14 09:51:13;;;;;;;6.95;2.90;;;;;;;22.99;56.27;101470.28;4901415;29;20060;-81
2023/07/14 09:53:39;;;;;;;6.05;2.53;;;;;;;23.23;55.27;101510.84;4918342;29;20028;-81
2023/07/14 09:56:16;;;;;;;5.05;2.58;;;;;;;23.28;55.49;101512.00;4903061;29;20088;-77
2023/07/14 09:59:25;;;;;;;5.57;2.72;;;;;;;23.41;54.16;101493.91;4898991;29;20105;-78
2023/07/14 10:02:01;;;;;;;5.13;2.08;;;;;;;23.42;55.98;101439.38;5136612;23;20581;-78
2023/07/14 10:04:30;;;;;;;5.22;2.38;;;;;;;23.25;53.61;101417.47;4937231;29;20035;-78
2023/07/14 10:07:32;;;;;;;4.50;2.50;;;;;;;23.07;55.39;101330.69;4936988;29;20055;-79
2023/07/14 10:10:14;;;;;;;5.93;2.63;;;;;;;24.09;55.42;101425.91;4919556;29;20390;-80
2023/07/14 10:12:55;;;;;;;5.68;2.40;;;;;;;24.56;50.49;101491.91;4919876;29;20024;-80
2023/07/14 10:15:30;;;;;;;4.65;2.22;;;;;;;24.56;50.37;101487.44;4936938;29;20064;-81
2023/07/14 10:17:58;;;;;;;6.10;2.53;;;;;;;24.28;49.81;101478.28;4936884;29;20055;-77
2023/07/14 10:20:24;;;;;;;4.90;2.35;;;;;;;23.89;50.80;101420.19;4936445;29;20024;-78
2023/07/14 10:22:53;;;;;;;4.65;1.95;;;;;;;24.33;50.86;101475.19;4936908;29;20035;-78
2023/07/14 10:25:21;;;;;;;6.68;2.20;;;;;;;24.15;50.64;101468.28;4936679;29;20031;-78
2023/07/14 10:28:30;;;;;;;5.40;2.28;;;;;;;23.51;51.55;101350.56;4972427;23;20145;-79
2023/07/14 10:31:34;;;;;;;3.88;2.10;;;;;;;24.16;53.52;101456.72;4955571;29;20042;-79
2023/07/14 10:34:23;;;;;;;5.15;2.30;;;;;;;24.13;53.13;101454.44;4955304;29;20038;-79
2023/07/14 10:36:52;;;;;;;5.00;2.10;;;;;;;24.15;52.69;101423.41;4955704;29;20050;-76
2023/07/14 10:39:52;;;;;;;4.88;2.10;;;;;;;24.40;52.78;101412.78;4955256;29;20031;-79
2023/07/14 10:42:22;;;;;;;5.65;2.53;;;;;;;24.35;51.60;101420.38;4955313;29;20027;-79
2023/07/14 10:44:49;;;;;;;5.22;2.40;;;;;;;24.17;50.94;101415.31;4955574;29;20035;-79
2023/07/14 10:47:23;;;;;;;5.40;2.78;;;;;;;24.07;51.42;101438.44;4955307;29;20477;-77
2023/07/14 10:50:17;;;;;;;5.18;2.55;;;;;;;24.09;52.21;101434.66;4955158;29;20082;-76
2023/07/14 10:52:48;;;;;;;4.60;2.35;;;;;;;23.96;52.77;101435.19;4938037;29;20035;-78
2023/07/14 10:55:30;;;;;;;6.57;2.40;;;;;;;23.98;52.24;101432.38;4955319;29;20027;-78
2023/07/14 10:58:01;;;;;;;5.75;2.70;;;;;;;23.42;52.81;101373.47;4955063;29;20027;-79
2023/07/14 11:00:45;;;;;;;6.35;2.78;;;;;;;23.79;52.56;101435.38;4955353;29;20122;-80
2023/07/14 11:06:45;;;;;;;8.25;2.92;;;;;;;22.88;53.17;101352.09;4938845;29;20028;-75
2023/07/14 11:09:19;;;;;;;5.97;2.20;;;;;;;23.46;54.67;101427.50;4935985;29;20059;-78
2023/07/14 11:12:12;;;;;;;7.38;2.22;;;;;;;23.28;55.75;101392.56;4918187;29;20040;-78
2023/07/14 11:14:51;;;;;;;5.20;2.35;;;;;;;23.77;53.87;101425.00;4935832;29;20058;-79
2023/07/14 11:17:39;;;;;;;5.72;2.38;;;;;;;24.19;51.83;101392.25;4935566;29;20028;-77
2023/07/14 11:20:23;;;;;;;4.70;2.25;;;;;;;24.57;51.13;101398.47;4935942;29;20046;-79
2023/07/14 11:23:25;;;;;;;6.70;2.53;;;;;;;24.93;51.70;101393.47;4935527;29;20031;-77
2023/07/14 11:26:12;;;;;;;;;;;;;;;25.42;52.11;101388.59;4936256;29;20035;-77
2023/07/14 11:29:00;;;;;;;4.75;1.98;;;;;;;25.08;49.67;101306.34;4918164;29;20415;-82
2023/07/14 11:31:29;;;;;;;4.30;2.05;;;;;;;24.99;48.08;101349.66;4935577;29;20039;-81
2023/07/14 11:34:20;;;;;;;4.22;2.10;;;;;;;24.79;48.94;101322.91;4935080;29;20035;-79
2023/07/14 11:37:17;;;;;;;;;;;;;;;;;;;;;
2023/07/14 11:39:43;;;;;;;3.83;1.85;;;;;;;25.03;48.75;101356.25;4935442;29;20042;-78
2023/07/14 11:42:17;;;;;;;4.90;1.83;;;;;;;25.11;48.82;101356.19;4935169;29;20123;-76
2023/07/14 11:44:44;;;;;;;5.22;2.25;;;;;;;24.95;48.53;101285.78;4934553;29;20384;-75
2023/07/14 11:47:18;;;;;;;9.32;2.50;;;;;;;25.72;49.42;101355.09;4936178;29;20047;-74
2023/07/14 11:49:44;;;;;;;5.00;2.08;;;;;;;25.87;49.15;101326.00;4935156;29;20036;-74
2023/07/14 11:52:27;;;;;;;7.15;2.58;;;;;;;25.83;47.46;101323.88;4935503;29;20108;-74